Time;durP1;ratioP1;P1;durP2;ratioP2;P2;SDS_P1;SDS_P2;PMS_P1;PMS_P2;Temp;Humidity;BMP_temperature;BMP_pressure;BME280_temperature;BME280_humidity;BME280_pressure;Samples;Min_cycle;Max_cycle;Signal;HPM_P1;HPM_P2
2021/12/01 00:00:33;;;;;;;;;;;9.90;89.80;;;;;;5126206;27;19938;-81
2021/12/01 00:03:01;;;;;;;;;;;9.90;89.40;;;;;;5145099;27;19930;-80
2021/12/01 00:05:29;;;;;;;;;;;9.90;89.40;;;;;;5139575;27;19927;-81
2021/12/01 00:07:57;;;;;;;;;;;9.90;89.00;;;;;;5131790;27;20308;-81
2021/12/01 00:10:25;;;;;;;;;;;9.90;88.60;;;;;;5133173;27;19922;-81
2021/12/01 00:12:53;;;;;;;;;;;9.90;88.70;;;;;;5123192;27;19934;-82
2021/12/01 00:15:20;;;;;;;;;;;9.90;88.50;;;;;;5150184;27;19924;-81
2021/12/01 00:17:49;;;;;;;;;;;9.90;88.60;;;;;;5144623;27;19924;-81
2021/12/01 00:20:18;;;;;;;;;;;9.90;88.30;;;;;;5124353;27;20025;-82
2021/12/01 00:22:46;;;;;;;;;;;9.90;88.30;;;;;;5120383;27;20312;-81
2021/12/01 00:25:15;;;;;;;;;;;9.90;87.80;;;;;;5150600;27;19927;-81
2021/12/01 00:27:43;;;;;;;;;;;9.90;87.70;;;;;;5128194;27;20266;-81
2021/12/01 00:30:10;;;;;;;;;;;9.90;87.50;;;;;;5146748;27;19942;-80
2021/12/01 00:32:38;;;;;;;;;;;9.90;87.50;;;;;;5129121;27;20372;-80
2021/12/01 00:35:06;;;;;;;;;;;9.90;87.60;;;;;;5139143;27;20395;-80
2021/12/01 00:37:33;;;;;;;;;;;9.90;87.60;;;;;;5136391;27;19927;-82
2021/12/01 00:40:01;;;;;;;;;;;9.90;87.90;;;;;;5151359;27;19923;-80
2021/12/01 00:42:28;;;;;;;;;;;9.80;88.30;;;;;;5157224;27;20291;-80
2021/12/01 00:44:59;;;;;;;;;;;9.70;88.50;;;;;;5154940;27;19931;-80
2021/12/01 00:47:41;;;;;;;;;;;9.70;88.60;;;;;;5142555;27;19931;-81
2021/12/01 00:50:13;;;;;;;;;;;9.60;88.90;;;;;;5142029;27;19924;-81
2021/12/01 00:52:41;;;;;;;;;;;9.40;89.00;;;;;;5132951;27;19923;-82
2021/12/01 00:55:09;;;;;;;;;;;9.40;88.80;;;;;;5151421;27;20372;-82
2021/12/01 00:57:37;;;;;;;;;;;9.30;87.30;;;;;;5139528;27;19923;-82
2021/12/01 01:00:06;;;;;;;;;;;9.30;87.00;;;;;;5132587;27;19923;-82
2021/12/01 01:02:34;;;;;;;;;;;9.30;87.20;;;;;;5135698;27;19935;-81
2021/12/01 01:05:02;;;;;;;;;;;9.30;87.00;;;;;;5137679;27;19927;-81
2021/12/01 01:07:30;;;;;;;;;;;9.30;87.10;;;;;;5145113;27;19937;-81
2021/12/01 01:10:04;;;;;;;;;;;9.20;86.10;;;;;;5158393;27;19934;-81
2021/12/01 01:18:08;;;;;;;;;;;8.90;86.80;;;;;;5135127;27;19997;-82
2021/12/01 01:20:35;;;;;;;;;;;8.80;87.20;;;;;;5146454;27;20394;-81
2021/12/01 01:23:03;;;;;;;;;;;8.80;87.40;;;;;;5118459;27;19998;-82
2021/12/01 01:25:30;;;;;;;;;;;8.80;87.20;;;;;;5122873;27;19930;-81
2021/12/01 01:27:57;;;;;;;;;;;8.70;86.80;;;;;;5132270;27;19958;-81
2021/12/01 01:30:25;;;;;;;;;;;8.80;86.90;;;;;;5135009;27;20411;-82
2021/12/01 01:32:52;;;;;;;;;;;8.70;87.00;;;;;;5133167;27;20387;-81
2021/12/01 01:35:20;;;;;;;;;;;8.70;87.20;;;;;;5139152;27;19923;-81
2021/12/01 01:37:47;;;;;;;;;;;8.60;87.10;;;;;;5143755;27;19946;-82
2021/12/01 01:40:15;;;;;;;;;;;8.60;87.30;;;;;;5136507;27;19928;-83
2021/12/01 01:42:42;;;;;;;;;;;8.60;87.40;;;;;;5137873;27;19923;-81
2021/12/01 01:45:10;;;;;;;;;;;8.60;87.30;;;;;;5136718;27;20414;-82
2021/12/01 01:47:46;;;;;;;;;;;8.60;87.40;;;;;;5154398;27;19923;-81
2021/12/01 01:50:34;;;;;;;;;;;8.50;86.80;;;;;;5127952;27;19930;-81
2021/12/01 01:53:06;;;;;;;;;;;8.50;86.60;;;;;;5133635;27;19942;-81
2021/12/01 01:55:34;;;;;;;;;;;8.50;86.70;;;;;;5140524;27;19927;-81
2021/12/01 01:58:02;;;;;;;;;;;8.50;86.90;;;;;;5143850;27;19934;-81
2021/12/01 02:00:29;;;;;;;;;;;8.50;87.00;;;;;;5149425;27;19930;-82
2021/12/01 02:03:00;;;;;;;;;;;8.40;87.20;;;;;;5149494;27;19930;-81
2021/12/01 02:05:28;;;;;;;;;;;8.40;86.90;;;;;;5134477;27;19927;-81
2021/12/01 02:07:55;;;;;;;;;;;8.40;86.30;;;;;;5128355;27;19946;-81
2021/12/01 02:10:22;;;;;;;;;;;8.40;86.50;;;;;;5121626;28;20296;-80
2021/12/01 02:12:50;;;;;;;;;;;8.40;86.70;;;;;;5132416;27;20280;-82
2021/12/01 02:15:17;;;;;;;;;;;8.30;87.00;;;;;;5118481;27;19930;-81
2021/12/01 02:17:45;;;;;;;;;;;8.30;87.30;;;;;;5124958;28;20394;-80
2021/12/01 02:20:19;;;;;;;;;;;8.20;88.10;;;;;;5127019;27;19923;-81
2021/12/01 02:22:47;;;;;;;;;;;8.10;88.90;;;;;;5149836;27;19930;-81
2021/12/01 02:25:15;;;;;;;;;;;7.90;89.40;;;;;;5140609;27;19934;-82
2021/12/01 02:27:42;;;;;;;;;;;7.80;89.40;;;;;;5135403;27;19923;-81
2021/12/01 02:30:09;;;;;;;;;;;7.80;89.70;;;;;;5146064;27;19923;-79
2021/12/01 02:32:37;;;;;;;;;;;7.70;90.10;;;;;;5151722;27;19923;-79
2021/12/01 02:35:04;;;;;;;;;;;7.70;90.10;;;;;;5151894;27;19934;-80
2021/12/01 02:37:32;;;;;;;;;;;7.60;89.80;;;;;;5149254;27;19930;-79
2021/12/01 02:39:59;;;;;;;;;;;7.70;89.80;;;;;;5143271;27;19931;-79
2021/12/01 02:42:26;;;;;;;;;;;7.70;89.90;;;;;;5132517;27;19923;-79
2021/12/01 02:44:54;;;;;;;;;;;7.60;90.10;;;;;;5150867;27;19923;-80
2021/12/01 02:47:26;;;;;;;;;;;7.60;90.30;;;;;;5142922;27;19930;-80
2021/12/01 02:49:54;;;;;;;;;;;7.60;90.30;;;;;;5146313;27;20403;-80
2021/12/01 02:52:22;;;;;;;;;;;7.50;90.20;;;;;;5144257;27;19923;-80
2021/12/01 02:54:50;;;;;;;;;;;7.50;90.40;;;;;;5146883;27;19923;-79
2021/12/01 02:57:17;;;;;;;;;;;7.50;90.40;;;;;;5148977;27;19923;-80
2021/12/01 02:59:44;;;;;;;;;;;7.50;90.30;;;;;;5137870;27;20392;-80
2021/12/01 03:02:12;;;;;;;;;;;7.40;90.30;;;;;;5152477;27;19923;-79
2021/12/01 03:04:39;;;;;;;;;;;7.40;90.10;;;;;;5149063;27;19923;-80
2021/12/01 03:07:07;;;;;;;;;;;7.40;90.00;;;;;;5153959;27;19923;-81
2021/12/01 03:09:35;;;;;;;;;;;7.30;89.90;;;;;;5152315;27;19934;-80
2021/12/01 03:12:03;;;;;;;;;;;7.30;89.90;;;;;;5146624;27;20387;-80
2021/12/01 03:14:31;;;;;;;;;;;7.30;89.80;;;;;;5151802;27;19930;-80
2021/12/01 03:16:58;;;;;;;;;;;7.30;89.80;;;;;;5140162;27;19930;-80
2021/12/01 03:19:26;;;;;;;;;;;7.30;89.90;;;;;;5156924;27;19930;-80
2021/12/01 03:21:54;;;;;;;;;;;7.20;90.00;;;;;;5134758;27;19934;-81
2021/12/01 03:24:22;;;;;;;;;;;7.20;90.10;;;;;;5155789;27;19923;-80
2021/12/01 03:26:50;;;;;;;;;;;7.20;90.10;;;;;;5151068;27;19923;-81
2021/12/01 03:29:18;;;;;;;;;;;7.10;90.10;;;;;;5140974;27;19923;-80
2021/12/01 03:31:46;;;;;;;;;;;7.00;90.10;;;;;;5157029;27;19938;-81
2021/12/01 03:34:15;;;;;;;;;;;7.00;90.10;;;;;;5142955;27;20407;-80
2021/12/01 03:36:43;;;;;;;;;;;7.00;90.10;;;;;;5152270;27;19923;-79
2021/12/01 03:39:10;;;;;;;;;;;7.00;90.10;;;;;;5140260;27;19923;-80
2021/12/01 03:41:38;;;;;;;;;;;7.00;89.70;;;;;;5146557;27;19924;-80
2021/12/01 03:44:05;;;;;;;;;;;6.90;89.70;;;;;;5147810;27;19934;-80
2021/12/01 03:46:33;;;;;;;;;;;6.80;89.70;;;;;;5151114;27;19923;-80
2021/12/01 03:49:00;;;;;;;;;;;6.90;89.80;;;;;;5143293;27;19923;-81
2021/12/01 03:51:27;;;;;;;;;;;6.80;89.90;;;;;;5142465;27;19930;-79
2021/12/01 03:53:55;;;;;;;;;;;6.80;90.00;;;;;;5146758;27;19928;-81
2021/12/01 03:56:23;;;;;;;;;;;6.80;90.00;;;;;;5150000;27;19930;-79
2021/12/01 03:58:50;;;;;;;;;;;6.80;90.10;;;;;;5153514;27;19941;-80
2021/12/01 04:01:17;;;;;;;;;;;6.70;90.30;;;;;;5142169;27;20003;-81
2021/12/01 04:03:45;;;;;;;;;;;6.80;90.40;;;;;;5153837;27;19946;-82
2021/12/01 04:06:12;;;;;;;;;;;6.70;90.60;;;;;;5143629;27;20391;-80
2021/12/01 04:08:40;;;;;;;;;;;6.80;90.80;;;;;;5136673;27;20426;-80
2021/12/01 04:11:07;;;;;;;;;;;6.70;90.80;;;;;;5149469;27;20283;-80
2021/12/01 04:13:35;;;;;;;;;;;6.70;90.90;;;;;;5155587;27;19923;-80
2021/12/01 04:16:02;;;;;;;;;;;6.70;91.10;;;;;;5148772;27;19927;-81
2021/12/01 04:18:30;;;;;;;;;;;6.70;91.20;;;;;;5128117;27;19923;-83
2021/12/01 04:20:57;;;;;;;;;;;6.70;91.30;;;;;;5154522;27;19923;-86
2021/12/01 04:23:24;;;;;;;;;;;6.70;91.40;;;;;;5149325;27;19923;-85
2021/12/01 04:25:52;;;;;;;;;;;6.70;91.50;;;;;;5150627;27;19923;-85
2021/12/01 04:28:19;;;;;;;;;;;6.70;91.50;;;;;;5154140;27;19946;-82
2021/12/01 04:30:46;;;;;;;;;;;6.70;91.50;;;;;;5152628;27;19946;-82
2021/12/01 04:33:14;;;;;;;;;;;6.70;91.60;;;;;;5150711;27;19923;-81
2021/12/01 04:35:42;;;;;;;;;;;6.60;91.60;;;;;;5158405;27;19929;-80
2021/12/01 04:38:10;;;;;;;;;;;6.60;91.60;;;;;;5144403;27;19992;-79
2021/12/01 04:40:37;;;;;;;;;;;6.60;91.60;;;;;;5137219;27;19923;-79
2021/12/01 04:43:04;;;;;;;;;;;6.60;91.50;;;;;;5139862;27;19923;-81
2021/12/01 04:45:36;;;;;;;;;;;6.60;91.60;;;;;;5148829;27;19923;-86
2021/12/01 04:48:03;;;;;;;;;;;6.60;91.70;;;;;;5134776;27;19923;-86
2021/12/01 04:50:30;;;;;;;;;;;6.60;91.80;;;;;;5149925;27;19930;-83
2021/12/01 04:52:58;;;;;;;;;;;6.60;91.90;;;;;;5154388;27;19923;-86
2021/12/01 04:55:26;;;;;;;;;;;6.60;92.00;;;;;;5148689;27;19931;-84
2021/12/01 04:57:54;;;;;;;;;;;6.60;92.10;;;;;;5142224;27;19924;-83
2021/12/01 05:00:23;;;;;;;;;;;6.60;92.10;;;;;;5128570;27;20304;-81
2021/12/01 05:02:50;;;;;;;;;;;6.60;92.30;;;;;;5135160;27;20368;-79
2021/12/01 05:05:18;;;;;;;;;;;6.50;92.30;;;;;;5148943;27;19924;-79
2021/12/01 05:07:46;;;;;;;;;;;6.60;92.30;;;;;;5143522;27;19923;-79
2021/12/01 05:10:13;;;;;;;;;;;6.60;92.40;;;;;;5153351;27;19930;-79
2021/12/01 05:12:41;;;;;;;;;;;6.60;92.50;;;;;;5119761;27;19923;-78
2021/12/01 05:15:08;;;;;;;;;;;6.60;92.60;;;;;;5151343;27;20532;-79
2021/12/01 05:17:35;;;;;;;;;;;6.60;92.80;;;;;;5147131;27;19924;-78
2021/12/01 05:20:04;;;;;;;;;;;6.70;93.10;;;;;;5141058;27;20415;-80
2021/12/01 05:22:32;;;;;;;;;;;6.70;93.30;;;;;;5131518;27;20311;-79
2021/12/01 05:25:00;;;;;;;;;;;6.80;93.40;;;;;;5149548;27;20380;-81
2021/12/01 05:27:27;;;;;;;;;;;6.80;93.20;;;;;;5140776;27;19928;-80
2021/12/01 05:29:54;;;;;;;;;;;6.90;92.40;;;;;;5125709;27;19948;-80
2021/12/01 05:32:22;;;;;;;;;;;6.90;92.60;;;;;;5153809;27;19923;-78
2021/12/01 05:34:49;;;;;;;;;;;6.90;92.60;;;;;;5136674;27;19930;-78
2021/12/01 05:37:17;;;;;;;;;;;6.90;92.60;;;;;;5149814;27;19927;-77
2021/12/01 05:39:47;;;;;;;;;;;6.90;92.40;;;;;;5140379;27;19972;-76
2021/12/01 05:42:16;;;;;;;;;;;6.90;92.40;;;;;;5141573;27;19943;-77
2021/12/01 05:44:44;;;;;;;;;;;6.90;92.40;;;;;;5151323;27;19923;-77
2021/12/01 05:47:12;;;;;;;;;;;6.90;92.50;;;;;;5133839;27;19924;-76
2021/12/01 05:49:44;;;;;;;;;;;6.90;92.70;;;;;;5135619;27;20304;-76
2021/12/01 05:52:12;;;;;;;;;;;6.90;92.90;;;;;;5146255;27;19923;-76
2021/12/01 05:54:40;;;;;;;;;;;7.00;93.10;;;;;;5139036;27;20044;-75
2021/12/01 05:57:07;;;;;;;;;;;7.00;93.10;;;;;;5135355;27;19923;-75
2021/12/01 05:59:35;;;;;;;;;;;7.00;93.10;;;;;;5128640;27;19928;-75
2021/12/01 06:02:07;;;;;;;;;;;7.00;93.10;;;;;;5150850;27;19923;-75
2021/12/01 06:04:35;;;;;;;;;;;7.00;92.90;;;;;;5141304;27;19930;-75
2021/12/01 06:07:03;;;;;;;;;;;7.00;92.70;;;;;;5149925;27;19927;-75
2021/12/01 06:09:30;;;;;;;;;;;6.90;92.30;;;;;;5135277;27;19930;-74
2021/12/01 06:11:58;;;;;;;;;;;6.90;91.90;;;;;;5148906;27;19923;-75
2021/12/01 06:14:25;;;;;;;;;;;6.80;91.20;;;;;;5141983;27;19923;-75
2021/12/01 06:16:53;;;;;;;;;;;6.80;90.80;;;;;;5134929;27;19931;-75
2021/12/01 06:19:20;;;;;;;;;;;6.70;90.50;;;;;;5146436;27;19923;-75
2021/12/01 06:21:48;;;;;;;;;;;6.70;90.40;;;;;;5145821;27;19969;-75
2021/12/01 06:24:15;;;;;;;;;;;6.70;90.30;;;;;;5141947;27;19946;-74
2021/12/01 06:26:43;;;;;;;;;;;6.60;90.30;;;;;;5134169;27;19930;-74
2021/12/01 06:29:10;;;;;;;;;;;6.60;90.40;;;;;;5149454;27;19923;-75
2021/12/01 06:31:37;;;;;;;;;;;6.70;90.50;;;;;;5138974;27;19937;-75
2021/12/01 06:34:05;;;;;;;;;;;6.60;90.70;;;;;;5137090;27;19923;-75
2021/12/01 06:36:33;;;;;;;;;;;6.60;90.80;;;;;;5140225;27;19923;-74
2021/12/01 06:39:01;;;;;;;;;;;6.60;90.80;;;;;;5142944;27;19923;-75
2021/12/01 06:41:28;;;;;;;;;;;6.60;90.90;;;;;;5141545;27;19946;-75
2021/12/01 06:43:56;;;;;;;;;;;6.60;91.00;;;;;;5140899;27;19923;-74
2021/12/01 06:46:23;;;;;;;;;;;6.60;91.10;;;;;;5133016;27;19946;-75
2021/12/01 06:48:51;;;;;;;;;;;6.50;91.20;;;;;;5149665;27;20288;-75
2021/12/01 06:51:18;;;;;;;;;;;6.60;91.30;;;;;;5146961;27;20007;-75
2021/12/01 06:53:46;;;;;;;;;;;6.60;91.40;;;;;;5140132;27;20755;-75
2021/12/01 06:56:15;;;;;;;;;;;6.60;91.30;;;;;;5127277;27;19923;-75
2021/12/01 06:58:43;;;;;;;;;;;6.60;91.10;;;;;;5142072;27;19924;-75
2021/12/01 07:01:10;;;;;;;;;;;6.70;91.00;;;;;;5134830;27;19938;-75
2021/12/01 07:03:41;;;;;;;;;;;6.70;91.00;;;;;;5139904;27;20388;-75
2021/12/01 07:06:08;;;;;;;;;;;6.70;90.80;;;;;;5142973;27;19934;-75
2021/12/01 07:08:37;;;;;;;;;;;6.70;90.60;;;;;;5146997;27;19923;-79
2021/12/01 07:11:05;;;;;;;;;;;6.70;90.60;;;;;;5141870;27;19930;-76
2021/12/01 07:13:33;;;;;;;;;;;6.70;90.60;;;;;;5150402;27;20407;-76
2021/12/01 07:16:01;;;;;;;;;;;6.70;90.70;;;;;;5149656;27;20291;-74
2021/12/01 07:18:28;;;;;;;;;;;6.70;90.70;;;;;;5131564;27;19927;-75
2021/12/01 07:20:56;;;;;;;;;;;6.70;90.70;;;;;;5155029;27;19946;-75
2021/12/01 07:23:24;;;;;;;;;;;6.70;90.80;;;;;;5137077;27;19924;-74
2021/12/01 07:26:02;;;;;;;;;;;6.70;90.70;;;;;;5146783;27;19930;-74
2021/12/01 07:28:31;;;;;;;;;;;6.70;90.60;;;;;;5151939;27;19923;-74
2021/12/01 07:30:59;;;;;;;;;;;6.70;90.20;;;;;;5130724;27;19941;-74
2021/12/01 07:33:30;;;;;;;;;;;6.70;90.00;;;;;;5121911;27;19923;-74
2021/12/01 07:35:57;;;;;;;;;;;6.60;90.00;;;;;;5126183;27;19925;-75
2021/12/01 07:38:24;;;;;;;;;;;6.70;90.00;;;;;;5129446;27;20303;-75
2021/12/01 07:40:52;;;;;;;;;;;6.70;89.90;;;;;;5109964;27;19958;-75
2021/12/01 07:43:19;;;;;;;;;;;6.60;89.80;;;;;;5132380;27;19927;-75
2021/12/01 07:45:46;;;;;;;;;;;6.60;89.60;;;;;;5138231;27;20418;-74
2021/12/01 07:48:14;;;;;;;;;;;6.60;89.50;;;;;;5128311;27;19931;-74
2021/12/01 07:50:41;;;;;;;;;;;6.60;89.50;;;;;;5126469;27;19924;-75
2021/12/01 07:53:09;;;;;;;;;;;6.60;89.40;;;;;;5146892;27;19923;-74
2021/12/01 07:55:38;;;;;;;;;;;6.60;89.50;;;;;;5123077;27;20304;-75
2021/12/01 07:58:06;;;;;;;;;;;6.60;89.80;;;;;;5126407;27;19923;-74
2021/12/01 08:00:33;;;;;;;;;;;6.50;90.00;;;;;;5146814;27;20292;-74
2021/12/01 08:03:01;;;;;;;;;;;6.50;90.10;;;;;;5145959;27;19923;-74
2021/12/01 08:05:28;;;;;;;;;;;6.50;90.10;;;;;;5144127;27;19934;-74
2021/12/01 08:07:56;;;;;;;;;;;6.50;90.20;;;;;;5144346;27;19946;-75
2021/12/01 08:10:23;;;;;;;;;;;6.50;90.10;;;;;;5142530;27;19924;-75
2021/12/01 08:12:51;;;;;;;;;;;6.50;90.10;;;;;;5125126;27;19924;-74
2021/12/01 08:15:23;;;;;;;;;;;6.50;90.00;;;;;;5147586;27;20256;-74
2021/12/01 08:17:51;;;;;;;;;;;6.60;90.00;;;;;;5121147;27;19930;-74
2021/12/01 08:20:19;;;;;;;;;;;6.60;90.10;;;;;;5118746;27;19927;-75
2021/12/01 08:22:47;;;;;;;;;;;6.60;90.30;;;;;;5143296;27;19923;-75
2021/12/01 08:25:14;;;;;;;;;;;6.60;90.50;;;;;;5142170;27;19927;-75
2021/12/01 08:27:42;;;;;;;;;;;6.60;90.60;;;;;;5150782;27;19930;-75
2021/12/01 08:30:10;;;;;;;;;;;6.50;90.80;;;;;;5155769;27;19923;-75
2021/12/01 08:32:37;;;;;;;;;;;6.50;91.00;;;;;;5152131;27;19923;-75
2021/12/01 08:35:05;;;;;;;;;;;6.40;91.20;;;;;;5148081;27;19923;-75
2021/12/01 08:37:33;;;;;;;;;;;6.40;91.20;;;;;;5142766;27;19923;-75
2021/12/01 08:40:00;;;;;;;;;;;6.50;91.20;;;;;;5139917;27;19994;-75
2021/12/01 08:42:28;;;;;;;;;;;6.50;91.20;;;;;;5135122;27;19924;-75
2021/12/01 08:44:55;;;;;;;;;;;6.60;91.20;;;;;;5134543;27;20360;-75
2021/12/01 08:47:24;;;;;;;;;;;6.60;91.10;;;;;;5135031;27;19923;-75
2021/12/01 08:49:52;;;;;;;;;;;6.70;91.10;;;;;;5135009;27;19924;-75
2021/12/01 08:52:21;;;;;;;;;;;6.70;90.90;;;;;;5134756;27;19924;-75
2021/12/01 08:54:48;;;;;;;;;;;6.80;90.70;;;;;;5134051;27;19924;-75
2021/12/01 08:57:16;;;;;;;;;;;6.80;90.50;;;;;;5115388;27;19923;-75
2021/12/01 08:59:44;;;;;;;;;;;6.80;90.30;;;;;;5134421;27;19932;-75
2021/12/01 09:02:12;;;;;;;;;;;6.90;90.00;;;;;;5116674;27;19930;-75
2021/12/01 09:04:39;;;;;;;;;;;6.90;89.90;;;;;;5134593;27;19931;-75
2021/12/01 09:07:07;;;;;;;;;;;6.90;90.00;;;;;;5134616;27;19927;-76
2021/12/01 09:09:34;;;;;;;;;;;7.00;89.50;;;;;;5134646;27;19930;-75
2021/12/01 09:12:02;;;;;;;;;;;7.00;89.20;;;;;;5134465;27;19989;-75
2021/12/01 09:14:30;;;;;;;;;;;7.10;88.90;;;;;;5134615;27;19924;-75
2021/12/01 09:16:57;;;;;;;;;;;7.10;88.70;;;;;;5115955;27;19931;-75
2021/12/01 09:19:25;;;;;;;;;;;7.20;88.40;;;;;;5134683;27;19946;-75
2021/12/01 09:21:52;;;;;;;;;;;7.20;88.40;;;;;;5136295;27;20398;-75
2021/12/01 09:24:21;;;;;;;;;;;7.30;88.00;;;;;;5154340;27;19923;-75
2021/12/01 09:26:49;;;;;;;;;;;7.20;88.00;;;;;;5155183;27;19923;-74
2021/12/01 09:29:16;;;;;;;;;;;7.20;87.80;;;;;;5155166;27;19942;-74
2021/12/01 09:31:44;;;;;;;;;;;7.20;87.90;;;;;;5154963;27;20287;-75
2021/12/01 09:34:11;;;;;;;;;;;7.20;87.90;;;;;;5154197;27;19931;-75
2021/12/01 09:36:39;;;;;;;;;;;7.20;87.90;;;;;;5154930;27;19927;-75
2021/12/01 09:39:07;;;;;;;;;;;7.10;88.00;;;;;;5154385;27;19930;-75
2021/12/01 09:41:34;;;;;;;;;;;7.10;88.20;;;;;;5154574;27;20300;-75
2021/12/01 09:44:02;;;;;;;;;;;7.10;88.10;;;;;;5136381;27;19923;-76
2021/12/01 09:46:30;;;;;;;;;;;7.00;88.40;;;;;;5154787;27;19927;-75
2021/12/01 09:48:58;;;;;;;;;;;7.00;88.70;;;;;;5154645;27;19923;-74
2021/12/01 09:51:26;;;;;;;;;;;6.90;88.80;;;;;;5154649;27;19927;-75
2021/12/01 09:53:54;;;;;;;;;;;6.90;88.90;;;;;;5153794;27;19923;-75
2021/12/01 09:56:24;;;;;;;;;;;7.00;88.70;;;;;;5154649;27;19923;-75
2021/12/01 09:58:51;;;;;;;;;;;7.10;88.60;;;;;;5154631;27;20295;-75
2021/12/01 10:01:21;;;;;;;;;;;7.20;88.60;;;;;;5154332;27;19923;-74
2021/12/01 10:03:48;;;;;;;;;;;7.20;88.30;;;;;;5154504;27;19923;-75
2021/12/01 10:06:21;;;;;;;;;;;7.20;88.20;;;;;;5153504;27;19937;-75
2021/12/01 10:08:51;;;;;;;;;;;7.20;88.20;;;;;;5154686;27;19923;-75
2021/12/01 10:11:21;;;;;;;;;;;7.20;88.10;;;;;;5154384;27;19923;-75
2021/12/01 10:13:52;;;;;;;;;;;7.30;88.20;;;;;;5153436;27;19927;-74
2021/12/01 10:16:20;;;;;;;;;;;7.50;87.80;;;;;;5154297;27;19931;-75
2021/12/01 10:18:52;;;;;;;;;;;7.50;86.90;;;;;;5154251;27;19930;-75
2021/12/01 10:21:22;;;;;;;;;;;7.50;86.90;;;;;;5153570;27;19934;-75
2021/12/01 10:23:53;;;;;;;;;;;7.60;87.10;;;;;;5153411;27;20392;-74
2021/12/01 10:26:25;;;;;;;;;;;7.60;86.70;;;;;;5154185;27;19931;-75
2021/12/01 10:28:52;;;;;;;;;;;7.70;86.00;;;;;;5154094;27;19946;-74
2021/12/01 10:31:34;;;;;;;;;;;7.60;86.00;;;;;;5153278;27;19927;-74
2021/12/01 10:34:21;;;;;;;;;;;7.60;86.30;;;;;;5154251;27;19923;-75
2021/12/01 10:37:07;;;;;;;;;;;7.60;86.50;;;;;;5118552;27;20267;-75
2021/12/01 10:39:35;;;;;;;;;;;7.70;86.50;;;;;;5154061;27;19923;-74
2021/12/01 10:42:04;;;;;;;;;;;7.80;86.10;;;;;;5135519;27;19927;-75
2021/12/01 10:44:32;;;;;;;;;;;7.90;85.90;;;;;;5153988;27;19923;-75
2021/12/01 10:47:06;;;;;;;;;;;7.90;84.60;;;;;;5155140;27;20292;-75
2021/12/01 10:49:35;;;;;;;;;;;7.80;84.70;;;;;;5157713;27;19931;-75
2021/12/01 10:52:02;;;;;;;;;;;7.70;83.90;;;;;;5157061;27;19923;-75
2021/12/01 10:54:30;;;;;;;;;;;7.50;83.70;;;;;;5157971;27;20383;-75
2021/12/01 10:57:16;;;;;;;;;;;7.40;83.60;;;;;;5157945;27;20387;-75
2021/12/01 10:59:45;;;;;;;;;;;7.30;83.90;;;;;;5157513;27;19930;-75
2021/12/01 11:02:12;;;;;;;;;;;7.30;83.90;;;;;;5138571;27;19923;-75
2021/12/01 11:04:41;;;;;;;;;;;7.50;84.10;;;;;;5157707;27;19927;-75
2021/12/01 11:07:22;;;;;;;;;;;7.60;83.80;;;;;;5157842;27;19923;-75
2021/12/01 11:10:09;;;;;;;;;;;7.80;83.60;;;;;;5139037;27;19927;-75
2021/12/01 11:12:37;;;;;;;;;;;8.00;83.30;;;;;;5157358;27;19923;-75
2021/12/01 11:15:39;;;;;;;;;;;8.20;82.50;;;;;;5157712;27;19927;-75
2021/12/01 11:18:27;;;;;;;;;;;8.20;82.50;;;;;;5157583;27;20401;-75
2021/12/01 11:21:15;;;;;;;;;;;8.20;83.00;;;;;;5141703;27;19927;-75
2021/12/01 11:23:49;;;;;;;;;;;8.10;83.50;;;;;;5154297;27;19932;-76
2021/12/01 11:26:19;;;;;;;;;;;8.00;83.90;;;;;;5144343;27;19937;-75
2021/12/01 11:28:48;;;;;;;;;;;8.00;84.30;;;;;;5150902;27;19930;-75
2021/12/01 11:31:26;;;;;;;;;;;7.90;84.10;;;;;;5121582;27;20300;-75
2021/12/01 11:33:55;;;;;;;;;;;7.90;84.50;;;;;;5138899;27;19923;-75
2021/12/01 11:36:26;;;;;;;;;;;7.90;84.50;;;;;;5157045;27;19923;-75
2021/12/01 11:38:56;;;;;;;;;;;8.00;84.40;;;;;;5156993;27;19923;-75
2021/12/01 11:41:23;;;;;;;;;;;8.10;84.40;;;;;;5138513;27;19930;-76
2021/12/01 11:43:56;;;;;;;;;;;8.10;84.20;;;;;;5138466;27;19923;-76
2021/12/01 11:46:23;;;;;;;;;;;8.20;84.30;;;;;;5138402;27;19930;-76
2021/12/01 11:48:53;;;;;;;;;;;8.30;83.80;;;;;;5156875;27;19927;-76
2021/12/01 11:51:24;;;;;;;;;;;8.40;83.40;;;;;;5138203;27;19923;-76
2021/12/01 11:54:04;;;;;;;;;;;8.40;83.50;;;;;;5138432;27;19927;-75
2021/12/01 11:56:33;;;;;;;;;;;8.30;83.90;;;;;;5156606;27;19936;-77
2021/12/01 11:59:05;;;;;;;;;;;8.10;84.50;;;;;;5156486;27;19927;-75
2021/12/01 12:01:35;;;;;;;;;;;7.90;84.80;;;;;;5156398;27;19923;-77
2021/12/01 12:04:04;;;;;;;;;;;7.70;85.40;;;;;;5156600;27;19927;-78
2021/12/01 12:06:35;;;;;;;;;;;7.50;85.50;;;;;;5156069;27;19930;-77
2021/12/01 12:09:05;;;;;;;;;;;7.20;85.80;;;;;;5156473;27;19923;-76
2021/12/01 12:11:34;;;;;;;;;;;7.10;86.40;;;;;;5137938;27;19924;-76
2021/12/01 12:14:03;;;;;;;;;;;6.90;87.00;;;;;;5138379;27;20384;-84
2021/12/01 12:16:31;;;;;;;;;;;6.80;87.00;;;;;;5137917;27;19930;-81
2021/12/01 12:18:59;;;;;;;;;;;6.60;86.70;;;;;;5137782;27;19923;-79
2021/12/01 12:21:52;;;;;;;;;;;6.30;87.20;;;;;;5136886;27;19953;-77
2021/12/01 12:24:20;;;;;;;;;;;6.20;87.40;;;;;;5155531;27;20392;-78
2021/12/01 12:26:57;;;;;;;;;;;6.00;88.10;;;;;;5156205;27;19927;-77
2021/12/01 12:29:26;;;;;;;;;;;5.90;88.50;;;;;;5156112;27;20299;-76
2021/12/01 12:32:13;;;;;;;;;;;5.90;89.00;;;;;;5155257;27;19923;-75
2021/12/01 12:34:51;;;;;;;;;;;5.90;89.30;;;;;;5155415;27;19986;-75
2021/12/01 12:37:25;;;;;;;;;;;5.90;89.60;;;;;;5155783;27;19923;-75
2021/12/01 12:39:53;;;;;;;;;;;5.90;90.00;;;;;;5137367;27;19931;-75
2021/12/01 12:42:22;;;;;;;;;;;5.90;90.10;;;;;;5137198;27;20400;-75
2021/12/01 12:44:51;;;;;;;;;;;5.90;90.40;;;;;;5154797;27;19923;-78
2021/12/01 12:47:26;;;;;;;;;;;6.00;89.40;;;;;;5155870;27;20273;-77
2021/12/01 12:50:00;;;;;;;;;;;6.00;89.40;;;;;;5155630;27;20359;-76
2021/12/01 12:52:29;;;;;;;;;;;6.00;89.50;;;;;;5155462;27;20371;-76
2021/12/01 12:54:58;;;;;;;;;;;6.00;89.60;;;;;;5154506;27;20384;-76
2021/12/01 12:57:45;;;;;;;;;;;6.10;89.60;;;;;;5154646;27;20321;-76
2021/12/01 13:00:15;;;;;;;;;;;6.10;89.60;;;;;;5154879;27;20303;-73
2021/12/01 13:02:42;;;;;;;;;;;6.10;89.60;;;;;;5155532;27;19934;-73
2021/12/01 13:05:10;;;;;;;;;;;6.10;89.80;;;;;;5154734;27;20406;-74
2021/12/01 13:07:38;;;;;;;;;;;6.00;89.80;;;;;;5155113;27;19930;-75
2021/12/01 13:10:05;;;;;;;;;;;6.10;89.90;;;;;;5153432;27;19923;-75
2021/12/01 13:12:47;;;;;;;;;;;6.00;90.30;;;;;;5154128;27;20379;-76
2021/12/01 13:15:21;;;;;;;;;;;6.00;90.50;;;;;;5155266;27;19927;-83
2021/12/01 13:17:49;;;;;;;;;;;5.90;89.70;;;;;;5136987;27;19930;-77
2021/12/01 13:20:18;;;;;;;;;;;5.80;89.20;;;;;;5136540;27;20509;-76
2021/12/01 13:23:02;;;;;;;;;;;5.70;89.20;;;;;;5154982;27;19923;-76
2021/12/01 13:25:29;;;;;;;;;;;5.70;89.80;;;;;;5133659;27;19935;-76
2021/12/01 13:27:56;;;;;;;;;;;5.70;90.20;;;;;;5125886;27;19930;-75
2021/12/01 13:30:24;;;;;;;;;;;5.70;90.60;;;;;;5144207;27;19924;-74
2021/12/01 13:33:09;;;;;;;;;;;5.80;90.90;;;;;;5141542;27;19930;-73
2021/12/01 13:35:37;;;;;;;;;;;5.90;91.10;;;;;;5140912;27;20510;-74
2021/12/01 13:38:04;;;;;;;;;;;6.00;91.10;;;;;;5144163;27;19934;-74
2021/12/01 13:40:32;;;;;;;;;;;6.10;90.90;;;;;;5143129;27;19934;-73
2021/12/01 13:42:59;;;;;;;;;;;6.10;90.80;;;;;;5142465;27;19945;-74
2021/12/01 13:45:28;;;;;;;;;;;6.20;90.60;;;;;;5134844;27;19930;-73
2021/12/01 13:47:55;;;;;;;;;;;6.10;90.20;;;;;;5153842;27;20367;-73
2021/12/01 13:50:22;;;;;;;;;;;6.10;90.10;;;;;;5153771;27;19934;-73
2021/12/01 13:52:51;;;;;;;;;;;6.00;90.10;;;;;;5143296;27;19931;-73
2021/12/01 13:55:22;;;;;;;;;;;6.00;90.00;;;;;;5140477;27;19930;-78
2021/12/01 13:57:53;;;;;;;;;;;6.00;90.10;;;;;;5142087;27;19938;-73
2021/12/01 14:00:33;;;;;;;;;;;6.00;90.20;;;;;;5153338;27;19923;-73
2021/12/01 14:03:00;;;;;;;;;;;5.90;90.20;;;;;;5150720;27;19923;-76
2021/12/01 14:05:28;;;;;;;;;;;6.00;90.20;;;;;;5154306;27;19923;-77
2021/12/01 14:08:19;;;;;;;;;;;5.90;90.00;;;;;;5154494;27;20380;-74
2021/12/01 14:10:49;;;;;;;;;;;5.90;89.80;;;;;;5049510;28;19929;-74
2021/12/01 14:13:18;;;;;;;;;;;5.90;89.70;;;;;;5050161;28;20326;-73
2021/12/01 14:15:47;;;;;;;;;;;5.90;89.90;;;;;;5049622;28;19932;-74
2021/12/01 14:18:15;;;;;;;;;;;5.80;89.70;;;;;;5027126;28;20578;-74
2021/12/01 14:20:44;;;;;;;;;;;5.70;89.30;;;;;;5023744;28;19929;-74
2021/12/01 14:23:12;;;;;;;;;;;5.50;89.30;;;;;;5042349;28;19925;-74
2021/12/01 14:25:47;;;;;;;;;;;5.30;89.40;;;;;;5042016;28;19925;-73
2021/12/01 14:28:14;;;;;;;;;;;5.20;89.60;;;;;;5041913;28;19933;-75
2021/12/01 14:30:44;;;;;;;;;;;5.10;89.70;;;;;;5043207;28;20605;-74
2021/12/01 14:33:16;;;;;;;;;;;5.00;89.80;;;;;;5041856;28;20001;-74
2021/12/01 14:35:44;;;;;;;;;;;4.90;90.00;;;;;;5037369;28;19933;-74
2021/12/01 14:38:14;;;;;;;;;;;4.90;90.10;;;;;;5037876;28;19932;-74
2021/12/01 14:40:42;;;;;;;;;;;4.80;90.20;;;;;;5040206;28;20012;-73
2021/12/01 14:43:09;;;;;;;;;;;4.90;90.30;;;;;;5041141;28;19924;-75
2021/12/01 14:45:37;;;;;;;;;;;4.80;90.30;;;;;;5027095;28;19931;-74
2021/12/01 14:48:06;;;;;;;;;;;4.80;90.40;;;;;;5076793;27;19931;-74